sensor_id;sensor_type;location;lat;lon;timestamp;pressure;altitude;pressure_sealevel;temperature
81909;BMP280;71372;43.514;1.512;2023-07-13T00:02:16;100279.53;;;26.66
81909;BMP280;71372;43.514;1.512;2023-07-13T00:04:42;100273.53;;;26.66
81909;BMP280;71372;43.514;1.512;2023-07-13T00:07:08;100270.06;;;26.65
81909;BMP280;71372;43.514;1.512;2023-07-13T00:09:34;100270.06;;;26.65
81909;BMP280;71372;43.514;1.512;2023-07-13T00:12:01;100273.63;;;26.64
81909;BMP280;71372;43.514;1.512;2023-07-13T00:14:28;100276.56;;;26.60
81909;BMP280;71372;43.514;1.512;2023-07-13T00:16:54;100273.41;;;26.56
81909;BMP280;71372;43.514;1.512;2023-07-13T00:19:20;100266.44;;;26.57
81909;BMP280;71372;43.514;1.512;2023-07-13T00:21:47;100276.69;;;26.58
81909;BMP280;71372;43.514;1.512;2023-07-13T00:24:16;100273.13;;;26.59
81909;BMP280;71372;43.514;1.512;2023-07-13T00:26:47;100275.88;;;26.58
81909;BMP280;71372;43.514;1.512;2023-07-13T00:29:14;100271.50;;;26.58
81909;BMP280;71372;43.514;1.512;2023-07-13T00:31:40;100270.69;;;26.58
81909;BMP280;71372;43.514;1.512;2023-07-13T00:34:06;100275.06;;;26.57
81909;BMP280;71372;43.514;1.512;2023-07-13T00:36:32;100268.22;;;26.56
81909;BMP280;71372;43.514;1.512;2023-07-13T00:38:58;100271.63;;;26.57
81909;BMP280;71372;43.514;1.512;2023-07-13T00:41:24;100269.03;;;26.57
81909;BMP280;71372;43.514;1.512;2023-07-13T00:43:50;100270.81;;;26.56
81909;BMP280;71372;43.514;1.512;2023-07-13T00:46:21;100269.97;;;26.56
81909;BMP280;71372;43.514;1.512;2023-07-13T00:48:48;100265.75;;;26.55
81909;BMP280;71372;43.514;1.512;2023-07-13T00:51:18;100266.56;;;26.55
81909;BMP280;71372;43.514;1.512;2023-07-13T00:53:44;100258.88;;;26.54
81909;BMP280;71372;43.514;1.512;2023-07-13T00:56:10;100261.47;;;26.54
81909;BMP280;71372;43.514;1.512;2023-07-13T00:58:37;100264.91;;;26.54
81909;BMP280;71372;43.514;1.512;2023-07-13T01:01:03;100267.63;;;26.53
81909;BMP280;71372;43.514;1.512;2023-07-13T01:03:29;100261.59;;;26.52
81909;BMP280;71372;43.514;1.512;2023-07-13T01:05:55;100264.19;;;26.52
81909;BMP280;71372;43.514;1.512;2023-07-13T01:08:22;100266.81;;;26.52
81909;BMP280;71372;43.514;1.512;2023-07-13T01:10:55;100268.56;;;26.52
81909;BMP280;71372;43.514;1.512;2023-07-13T01:13:21;100267.88;;;26.50
81909;BMP280;71372;43.514;1.512;2023-07-13T01:15:50;100268.00;;;26.48
81909;BMP280;71372;43.514;1.512;2023-07-13T01:18:26;100274.03;;;26.49
81909;BMP280;71372;43.514;1.512;2023-07-13T01:21:03;100269.78;;;26.48
81909;BMP280;71372;43.514;1.512;2023-07-13T01:23:30;100268.13;;;26.47
81909;BMP280;71372;43.514;1.512;2023-07-13T01:25:58;100270.72;;;26.47
81909;BMP280;71372;43.514;1.512;2023-07-13T01:28:25;100272.50;;;26.46
81909;BMP280;71372;43.514;1.512;2023-07-13T01:30:58;100276.06;;;26.45
81909;BMP280;71372;43.514;1.512;2023-07-13T01:33:24;100270.84;;;26.45
81909;BMP280;71372;43.514;1.512;2023-07-13T01:35:50;100270.03;;;26.45
81909;BMP280;71372;43.514;1.512;2023-07-13T01:38:19;100279.63;;;26.44
81909;BMP280;71372;43.514;1.512;2023-07-13T01:40:45;100279.63;;;26.44
81909;BMP280;71372;43.514;1.512;2023-07-13T01:43:11;100271.09;;;26.42
81909;BMP280;71372;43.514;1.512;2023-07-13T01:45:37;100287.50;;;26.43
81909;BMP280;71372;43.514;1.512;2023-07-13T01:48:03;100282.31;;;26.43
81909;BMP280;71372;43.514;1.512;2023-07-13T01:50:29;100277.25;;;26.41
81909;BMP280;71372;43.514;1.512;2023-07-13T01:52:55;100281.50;;;26.42
81909;BMP280;71372;43.514;1.512;2023-07-13T01:55:22;100285.03;;;26.41
81909;BMP280;71372;43.514;1.512;2023-07-13T01:57:48;100278.19;;;26.41
81909;BMP280;71372;43.514;1.512;2023-07-13T02:00:15;100283.53;;;26.39
81909;BMP280;71372;43.514;1.512;2023-07-13T02:02:41;100284.34;;;26.40
81909;BMP280;71372;43.514;1.512;2023-07-13T02:05:07;100289.56;;;26.40
81909;BMP280;71372;43.514;1.512;2023-07-13T02:07:33;100280.13;;;26.39
81909;BMP280;71372;43.514;1.512;2023-07-13T02:09:59;100281.06;;;26.38
81909;BMP280;71372;43.514;1.512;2023-07-13T02:12:25;100277.63;;;26.37
81909;BMP280;71372;43.514;1.512;2023-07-13T02:14:51;100272.41;;;26.37
81909;BMP280;71372;43.514;1.512;2023-07-13T02:17:17;100271.59;;;26.37
81909;BMP280;71372;43.514;1.512;2023-07-13T02:19:43;100275.97;;;26.36
81909;BMP280;71372;43.514;1.512;2023-07-13T02:22:09;100280.34;;;26.36
81909;BMP280;71372;43.514;1.512;2023-07-13T02:24:35;100276.09;;;26.35
81909;BMP280;71372;43.514;1.512;2023-07-13T02:27:01;100282.25;;;26.34
81909;BMP280;71372;43.514;1.512;2023-07-13T02:29:27;100282.25;;;26.34
81909;BMP280;71372;43.514;1.512;2023-07-13T02:31:53;100283.22;;;26.33
81909;BMP280;71372;43.514;1.512;2023-07-13T02:34:18;100283.22;;;26.33
81909;BMP280;71372;43.514;1.512;2023-07-13T02:36:44;100282.50;;;26.31
81909;BMP280;71372;43.514;1.512;2023-07-13T02:39:11;100281.53;;;26.32
81909;BMP280;71372;43.514;1.512;2023-07-13T02:41:38;100298.06;;;26.31
81909;BMP280;71372;43.514;1.512;2023-07-13T02:44:04;100290.28;;;26.31
81909;BMP280;71372;43.514;1.512;2023-07-13T02:46:34;100290.28;;;26.31
81909;BMP280;71372;43.514;1.512;2023-07-13T02:49:01;100293.16;;;26.28
81909;BMP280;71372;43.514;1.512;2023-07-13T02:51:27;100295.63;;;26.29
81909;BMP280;71372;43.514;1.512;2023-07-13T02:53:53;100302.59;;;26.29
81909;BMP280;71372;43.514;1.512;2023-07-13T02:56:24;100296.69;;;26.27
81909;BMP280;71372;43.514;1.512;2023-07-13T02:58:50;100299.28;;;26.27
81909;BMP280;71372;43.514;1.512;2023-07-13T03:01:16;100306.28;;;26.26
81909;BMP280;71372;43.514;1.512;2023-07-13T03:03:48;100305.41;;;26.26
81909;BMP280;71372;43.514;1.512;2023-07-13T03:06:14;100303.78;;;26.25
81909;BMP280;71372;43.514;1.512;2023-07-13T03:08:41;100308.16;;;26.24
81909;BMP280;71372;43.514;1.512;2023-07-13T03:11:12;100303.91;;;26.23
81909;BMP280;71372;43.514;1.512;2023-07-13T03:13:40;100305.69;;;26.23
81909;BMP280;71372;43.514;1.512;2023-07-13T03:16:07;100304.25;;;26.19
81909;BMP280;71372;43.514;1.512;2023-07-13T03:18:32;100319.16;;;26.17
81909;BMP280;71372;43.514;1.512;2023-07-13T03:20:58;100320.13;;;26.16
81909;BMP280;71372;43.514;1.512;2023-07-13T03:23:25;100321.75;;;26.17
81909;BMP280;71372;43.514;1.512;2023-07-13T03:26:01;100326.97;;;26.17
81909;BMP280;71372;43.514;1.512;2023-07-13T03:28:28;100325.41;;;26.15
81909;BMP280;71372;43.514;1.512;2023-07-13T03:31:11;100334.03;;;26.15
81909;BMP280;71372;43.514;1.512;2023-07-13T03:33:37;100326.38;;;26.14
81909;BMP280;71372;43.514;1.512;2023-07-13T03:36:05;100334.97;;;26.14
81909;BMP280;71372;43.514;1.512;2023-07-13T03:38:32;100341.13;;;26.13
81909;BMP280;71372;43.514;1.512;2023-07-13T03:40:58;100337.72;;;26.13
81909;BMP280;71372;43.514;1.512;2023-07-13T03:43:24;100351.66;;;26.12
81909;BMP280;71372;43.514;1.512;2023-07-13T03:45:50;100355.22;;;26.11
81909;BMP280;71372;43.514;1.512;2023-07-13T03:48:16;100365.69;;;26.09
81909;BMP280;71372;43.514;1.512;2023-07-13T03:50:42;100363.22;;;26.08
81909;BMP280;71372;43.514;1.512;2023-07-13T03:53:08;100360.75;;;26.06
81909;BMP280;71372;43.514;1.512;2023-07-13T03:55:34;100362.53;;;26.06
81909;BMP280;71372;43.514;1.512;2023-07-13T03:58:24;100357.34;;;26.06
81909;BMP280;71372;43.514;1.512;2023-07-13T04:00:51;100354.97;;;26.03
81909;BMP280;71372;43.514;1.512;2023-07-13T04:03:16;100354.38;;;25.99
81909;BMP280;71372;43.514;1.512;2023-07-13T04:05:42;100359.66;;;25.98
81909;BMP280;71372;43.514;1.512;2023-07-13T04:08:08;100363.22;;;25.97
81909;BMP280;71372;43.514;1.512;2023-07-13T04:10:34;100365.81;;;25.97
81909;BMP280;71372;43.514;1.512;2023-07-13T04:13:00;100374.41;;;25.97
81909;BMP280;71372;43.514;1.512;2023-07-13T04:15:29;100364.03;;;25.97
81909;BMP280;71372;43.514;1.512;2023-07-13T04:17:56;100371.94;;;25.96
81909;BMP280;71372;43.514;1.512;2023-07-13T04:20:21;100367.69;;;25.95
81909;BMP280;71372;43.514;1.512;2023-07-13T04:22:47;100364.28;;;25.94
81909;BMP280;71372;43.514;1.512;2023-07-13T04:25:13;100371.25;;;25.94
81909;BMP280;71372;43.514;1.512;2023-07-13T04:27:39;100379.13;;;25.92
81909;BMP280;71372;43.514;1.512;2023-07-13T04:30:06;100382.69;;;25.91
81909;BMP280;71372;43.514;1.512;2023-07-13T04:32:32;100391.44;;;25.91
81909;BMP280;71372;43.514;1.512;2023-07-13T04:34:58;100388.00;;;25.90
81909;BMP280;71372;43.514;1.512;2023-07-13T04:37:26;100397.59;;;25.90
81909;BMP280;71372;43.514;1.512;2023-07-13T04:39:52;100393.34;;;25.89
81909;BMP280;71372;43.514;1.512;2023-07-13T04:42:18;100395.94;;;25.89
81909;BMP280;71372;43.514;1.512;2023-07-13T04:44:48;100402.91;;;25.88
81909;BMP280;71372;43.514;1.512;2023-07-13T04:47:14;100400.41;;;25.87
81909;BMP280;71372;43.514;1.512;2023-07-13T04:49:40;100394.38;;;25.86
81909;BMP280;71372;43.514;1.512;2023-07-13T04:52:07;100394.38;;;25.86
81909;BMP280;71372;43.514;1.512;2023-07-13T04:54:33;100400.53;;;25.85
81909;BMP280;71372;43.514;1.512;2023-07-13T04:57:00;100403.94;;;25.86
81909;BMP280;71372;43.514;1.512;2023-07-13T04:59:26;100409.16;;;25.86
81909;BMP280;71372;43.514;1.512;2023-07-13T05:01:53;100412.69;;;25.85
81909;BMP280;71372;43.514;1.512;2023-07-13T05:04:19;100415.28;;;25.85
81909;BMP280;71372;43.514;1.512;2023-07-13T05:06:45;100422.25;;;25.84
81909;BMP280;71372;43.514;1.512;2023-07-13T05:09:10;100431.00;;;25.83
81909;BMP280;71372;43.514;1.512;2023-07-13T05:11:38;100424.97;;;25.83
81909;BMP280;71372;43.514;1.512;2023-07-13T05:14:04;100441.50;;;25.82
81909;BMP280;71372;43.514;1.512;2023-07-13T05:16:29;100438.91;;;25.82
81909;BMP280;71372;43.514;1.512;2023-07-13T05:18:55;100433.81;;;25.80
81909;BMP280;71372;43.514;1.512;2023-07-13T05:21:21;100439.81;;;25.81
81909;BMP280;71372;43.514;1.512;2023-07-13T05:23:47;100440.78;;;25.80
81909;BMP280;71372;43.514;1.512;2023-07-13T05:26:13;100439.13;;;25.79
81909;BMP280;71372;43.514;1.512;2023-07-13T05:28:39;100438.31;;;25.78
81909;BMP280;71372;43.514;1.512;2023-07-13T05:31:07;100428.13;;;25.75
81909;BMP280;71372;43.514;1.512;2023-07-13T05:33:33;100429.91;;;25.75
81909;BMP280;71372;43.514;1.512;2023-07-13T05:35:59;100435.22;;;25.73
81909;BMP280;71372;43.514;1.512;2023-07-13T05:38:26;100443.03;;;25.73
81909;BMP280;71372;43.514;1.512;2023-07-13T05:40:54;100440.53;;;25.72
81909;BMP280;71372;43.514;1.512;2023-07-13T05:43:21;100437.94;;;25.72
81909;BMP280;71372;43.514;1.512;2023-07-13T05:45:48;100443.16;;;25.72
81909;BMP280;71372;43.514;1.512;2023-07-13T05:48:15;100436.66;;;25.67
81909;BMP280;71372;43.514;1.512;2023-07-13T05:50:41;100445.47;;;25.64
81909;BMP280;71372;43.514;1.512;2023-07-13T05:53:07;100441.97;;;25.65
81909;BMP280;71372;43.514;1.512;2023-07-13T05:55:33;100447.97;;;25.66
81909;BMP280;71372;43.514;1.512;2023-07-13T05:58:00;100446.31;;;25.65
81909;BMP280;71372;43.514;1.512;2023-07-13T06:00:26;100447.97;;;25.66
81909;BMP280;71372;43.514;1.512;2023-07-13T06:02:53;100444.56;;;25.65
81909;BMP280;71372;43.514;1.512;2023-07-13T06:05:19;100448.91;;;25.65
81909;BMP280;71372;43.514;1.512;2023-07-13T06:07:44;100455.03;;;25.64
81909;BMP280;71372;43.514;1.512;2023-07-13T06:10:10;100468.03;;;25.64
81909;BMP280;71372;43.514;1.512;2023-07-13T06:12:36;100464.59;;;25.63
81909;BMP280;71372;43.514;1.512;2023-07-13T06:15:03;100459.41;;;25.63
81909;BMP280;71372;43.514;1.512;2023-07-13T06:17:29;100460.34;;;25.62
81909;BMP280;71372;43.514;1.512;2023-07-13T06:19:55;100469.78;;;25.63
81909;BMP280;71372;43.514;1.512;2023-07-13T06:22:21;100476.75;;;25.63
81909;BMP280;71372;43.514;1.512;2023-07-13T06:24:47;100478.53;;;25.62
81909;BMP280;71372;43.514;1.512;2023-07-13T06:27:12;100479.47;;;25.61
81909;BMP280;71372;43.514;1.512;2023-07-13T06:29:38;100496.69;;;25.62
81909;BMP280;71372;43.514;1.512;2023-07-13T06:32:05;100497.66;;;25.61
81909;BMP280;71372;43.514;1.512;2023-07-13T06:34:31;100500.25;;;25.61
81909;BMP280;71372;43.514;1.512;2023-07-13T06:36:57;100502.03;;;25.61
81909;BMP280;71372;43.514;1.512;2023-07-13T06:39:23;100502.84;;;25.61
81909;BMP280;71372;43.514;1.512;2023-07-13T06:41:49;100496.00;;;25.60
81909;BMP280;71372;43.514;1.512;2023-07-13T06:44:15;100490.81;;;25.60
81909;BMP280;71372;43.514;1.512;2023-07-13T06:46:41;100483.94;;;25.59
81909;BMP280;71372;43.514;1.512;2023-07-13T06:49:08;100483.94;;;25.59
81909;BMP280;71372;43.514;1.512;2023-07-13T06:51:34;100506.59;;;25.57
81909;BMP280;71372;43.514;1.512;2023-07-13T06:54:00;100506.00;;;25.54
81909;BMP280;71372;43.514;1.512;2023-07-13T06:56:26;100513.69;;;25.55
81909;BMP280;71372;43.514;1.512;2023-07-13T06:58:51;100524.91;;;25.56
81909;BMP280;71372;43.514;1.512;2023-07-13T07:01:17;100525.72;;;25.56
81909;BMP280;71372;43.514;1.512;2023-07-13T07:03:43;100530.09;;;25.56
81909;BMP280;71372;43.514;1.512;2023-07-13T07:06:21;100522.19;;;25.57
81909;BMP280;71372;43.514;1.512;2023-07-13T07:08:52;100525.72;;;25.56
81909;BMP280;71372;43.514;1.512;2023-07-13T07:11:23;100529.97;;;25.57
81909;BMP280;71372;43.514;1.512;2023-07-13T07:13:51;100523.94;;;25.57
81909;BMP280;71372;43.514;1.512;2023-07-13T07:16:18;100531.84;;;25.55
81909;BMP280;71372;43.514;1.512;2023-07-13T07:18:45;100525.03;;;25.54
81909;BMP280;71372;43.514;1.512;2023-07-13T07:21:11;100531.84;;;25.55
81909;BMP280;71372;43.514;1.512;2023-07-13T07:23:37;100539.66;;;25.55
81909;BMP280;71372;43.514;1.512;2023-07-13T07:26:03;100537.06;;;25.55
81909;BMP280;71372;43.514;1.512;2023-07-13T07:28:30;100539.66;;;25.55
81909;BMP280;71372;43.514;1.512;2023-07-13T07:30:57;100544.00;;;25.55
81909;BMP280;71372;43.514;1.512;2023-07-13T07:33:24;100538.81;;;25.55
81909;BMP280;71372;43.514;1.512;2023-07-13T07:35:51;100544.84;;;25.55
81909;BMP280;71372;43.514;1.512;2023-07-13T07:38:17;100541.41;;;25.55
81909;BMP280;71372;43.514;1.512;2023-07-13T07:40:43;100545.66;;;25.56
81909;BMP280;71372;43.514;1.512;2023-07-13T07:43:10;100539.66;;;25.55
81909;BMP280;71372;43.514;1.512;2023-07-13T07:45:37;100537.06;;;25.55
81909;BMP280;71372;43.514;1.512;2023-07-13T07:48:04;100535.28;;;25.56
81909;BMP280;71372;43.514;1.512;2023-07-13T07:50:31;100529.25;;;25.55
81909;BMP280;71372;43.514;1.512;2023-07-13T07:52:57;100526.66;;;25.55
81909;BMP280;71372;43.514;1.512;2023-07-13T07:55:24;100538.00;;;25.54
81909;BMP280;71372;43.514;1.512;2023-07-13T07:57:52;100529.34;;;25.54
81909;BMP280;71372;43.514;1.512;2023-07-13T08:00:18;100536.22;;;25.55
81909;BMP280;71372;43.514;1.512;2023-07-13T08:02:45;100528.44;;;25.55
81909;BMP280;71372;43.514;1.512;2023-07-13T08:05:11;100535.41;;;25.54
81909;BMP280;71372;43.514;1.512;2023-07-13T08:07:38;100538.00;;;25.54
81909;BMP280;71372;43.514;1.512;2023-07-13T08:10:05;100538.81;;;25.55
81909;BMP280;71372;43.514;1.512;2023-07-13T08:12:38;100531.84;;;25.55
81909;BMP280;71372;43.514;1.512;2023-07-13T08:15:05;100536.22;;;25.55
81909;BMP280;71372;43.514;1.512;2023-07-13T08:17:31;100535.41;;;25.54
81909;BMP280;71372;43.514;1.512;2023-07-13T08:19:57;100526.75;;;25.54
81909;BMP280;71372;43.514;1.512;2023-07-13T08:22:23;100531.13;;;25.53
81909;BMP280;71372;43.514;1.512;2023-07-13T08:24:49;100533.72;;;25.53
81909;BMP280;71372;43.514;1.512;2023-07-13T08:27:26;100531.13;;;25.53
81909;BMP280;71372;43.514;1.512;2023-07-13T08:29:52;100525.09;;;25.53
81909;BMP280;71372;43.514;1.512;2023-07-13T08:32:20;100525.94;;;25.53
81909;BMP280;71372;43.514;1.512;2023-07-13T08:34:47;100531.13;;;25.53
81909;BMP280;71372;43.514;1.512;2023-07-13T08:37:13;100526.88;;;25.52
81909;BMP280;71372;43.514;1.512;2023-07-13T08:39:39;100536.44;;;25.52
81909;BMP280;71372;43.514;1.512;2023-07-13T08:42:12;100532.06;;;25.52
81909;BMP280;71372;43.514;1.512;2023-07-13T08:44:53;100526.88;;;25.52
81909;BMP280;71372;43.514;1.512;2023-07-13T08:47:22;100532.06;;;25.52
81909;BMP280;71372;43.514;1.512;2023-07-13T08:49:49;100529.47;;;25.52
81909;BMP280;71372;43.514;1.512;2023-07-13T08:54:51;100532.19;;;25.51
81909;BMP280;71372;43.514;1.512;2023-07-13T08:57:25;100526.06;;;25.52
81909;BMP280;71372;43.514;1.512;2023-07-13T08:59:55;100516.63;;;25.51
81909;BMP280;71372;43.514;1.512;2023-07-13T09:02:45;100518.25;;;25.52
81909;BMP280;71372;43.514;1.512;2023-07-13T09:05:18;100516.63;;;25.51
81909;BMP280;71372;43.514;1.512;2023-07-13T09:10:21;100518.25;;;25.52
81909;BMP280;71372;43.514;1.512;2023-07-13T09:15:44;100514.97;;;25.50
81909;BMP280;71372;43.514;1.512;2023-07-13T09:18:27;100521.81;;;25.51
81909;BMP280;71372;43.514;1.512;2023-07-13T09:21:02;100524.53;;;25.49
81909;BMP280;71372;43.514;1.512;2023-07-13T09:23:30;100520.16;;;25.50
81909;BMP280;71372;43.514;1.512;2023-07-13T09:26:17;100526.19;;;25.50
81909;BMP280;71372;43.514;1.512;2023-07-13T09:28:46;100520.16;;;25.50
81909;BMP280;71372;43.514;1.512;2023-07-13T09:31:17;100518.38;;;25.50
81909;BMP280;71372;43.514;1.512;2023-07-13T09:33:44;100521.94;;;25.49
81909;BMP280;71372;43.514;1.512;2023-07-13T09:36:23;100521.81;;;25.51
81909;BMP280;71372;43.514;1.512;2023-07-13T09:39:10;100523.56;;;25.50
81909;BMP280;71372;43.514;1.512;2023-07-13T09:42:01;100520.16;;;25.50
81909;BMP280;71372;43.514;1.512;2023-07-13T09:46:57;100520.97;;;25.50
81909;BMP280;71372;43.514;1.512;2023-07-13T09:49:25;100527.81;;;25.51
81909;BMP280;71372;43.514;1.512;2023-07-13T09:52:10;100517.44;;;25.51
81909;BMP280;71372;43.514;1.512;2023-07-13T09:54:37;100521.81;;;25.51
81909;BMP280;71372;43.514;1.512;2023-07-13T09:57:14;100521.69;;;25.52
81909;BMP280;71372;43.514;1.512;2023-07-13T09:59:45;100521.69;;;25.52
81909;BMP280;71372;43.514;1.512;2023-07-13T10:02:26;100518.97;;;25.54
81909;BMP280;71372;43.514;1.512;2023-07-13T10:04:58;100515.53;;;25.53
81909;BMP280;71372;43.514;1.512;2023-07-13T10:07:24;100534.47;;;25.55
81909;BMP280;71372;43.514;1.512;2023-07-13T10:09:55;100524.06;;;25.55
81909;BMP280;71372;43.514;1.512;2023-07-13T10:12:22;100531.84;;;25.55
81909;BMP280;71372;43.514;1.512;2023-07-13T10:14:54;100530.91;;;25.56
81909;BMP280;71372;43.514;1.512;2023-07-13T10:17:27;100527.38;;;25.57
81909;BMP280;71372;43.514;1.512;2023-07-13T10:19:59;100530.91;;;25.56
81909;BMP280;71372;43.514;1.512;2023-07-13T10:22:52;100541.19;;;25.58
81909;BMP280;71372;43.514;1.512;2023-07-13T10:25:22;100530.91;;;25.56
81909;BMP280;71372;43.514;1.512;2023-07-13T10:27:52;100529.03;;;25.58
81909;BMP280;71372;43.514;1.512;2023-07-13T10:30:21;100535.03;;;25.59
81909;BMP280;71372;43.514;1.512;2023-07-13T10:32:49;100535.88;;;25.59
81909;BMP280;71372;43.514;1.512;2023-07-13T10:35:18;100529.84;;;25.59
81909;BMP280;71372;43.514;1.512;2023-07-13T10:37:51;100521.13;;;25.60
81909;BMP280;71372;43.514;1.512;2023-07-13T10:40:29;100522.78;;;25.61
81909;BMP280;71372;43.514;1.512;2023-07-13T10:42:57;100532.22;;;25.62
81909;BMP280;71372;43.514;1.512;2023-07-13T10:45:25;100522.66;;;25.62
81909;BMP280;71372;43.514;1.512;2023-07-13T10:47:53;100531.28;;;25.63
81909;BMP280;71372;43.514;1.512;2023-07-13T10:50:27;100527.75;;;25.64
81909;BMP280;71372;43.514;1.512;2023-07-13T10:52:55;100538.94;;;25.64
81909;BMP280;71372;43.514;1.512;2023-07-13T10:58:24;100530.25;;;25.65
81909;BMP280;71372;43.514;1.512;2023-07-13T11:03:34;100519.00;;;25.65
81909;BMP280;71372;43.514;1.512;2023-07-13T11:06:15;100530.25;;;25.65
81909;BMP280;71372;43.514;1.512;2023-07-13T11:14:03;100509.34;;;25.67
81909;BMP280;71372;43.514;1.512;2023-07-13T11:16:42;100513.59;;;25.67
81909;BMP280;71372;43.514;1.512;2023-07-13T11:19:37;100510.06;;;25.68
81909;BMP280;71372;43.514;1.512;2023-07-13T11:38:28;100502.88;;;25.72
81909;BMP280;71372;43.514;1.512;2023-07-13T11:40:58;100502.63;;;25.75
81909;BMP280;71372;43.514;1.512;2023-07-13T11:43:29;100490.59;;;25.74
81909;BMP280;71372;43.514;1.512;2023-07-13T11:45:55;100479.25;;;25.75
81909;BMP280;71372;43.514;1.512;2023-07-13T11:48:27;100487.78;;;25.77
81909;BMP280;71372;43.514;1.512;2023-07-13T11:51:03;100483.41;;;25.77
81909;BMP280;71372;43.514;1.512;2023-07-13T11:53:43;100481.63;;;25.78
81909;BMP280;71372;43.514;1.512;2023-07-13T11:56:11;100473.84;;;25.78
81909;BMP280;71372;43.514;1.512;2023-07-13T11:58:37;100478.09;;;25.79
81909;BMP280;71372;43.514;1.512;2023-07-13T12:01:03;100471.94;;;25.80
81909;BMP280;71372;43.514;1.512;2023-07-13T12:03:33;100467.56;;;25.80
81909;BMP280;71372;43.514;1.512;2023-07-13T12:06:05;100463.19;;;25.81
81909;BMP280;71372;43.514;1.512;2023-07-13T12:08:37;100460.50;;;25.82
81909;BMP280;71372;43.514;1.512;2023-07-13T12:11:14;100464.88;;;25.82
81909;BMP280;71372;43.514;1.512;2023-07-13T12:13:41;100471.72;;;25.83
81909;BMP280;71372;43.514;1.512;2023-07-13T12:16:12;100455.19;;;25.84
81909;BMP280;71372;43.514;1.512;2023-07-13T12:18:39;100463.00;;;25.84
81909;BMP280;71372;43.514;1.512;2023-07-13T12:21:10;100456.03;;;25.84
81909;BMP280;71372;43.514;1.512;2023-07-13T12:23:38;100461.22;;;25.84
81909;BMP280;71372;43.514;1.512;2023-07-13T12:26:05;100455.91;;;25.86
81909;BMP280;71372;43.514;1.512;2023-07-13T12:28:35;100457.78;;;25.84
81909;BMP280;71372;43.514;1.512;2023-07-13T12:31:07;100451.91;;;25.82
81909;BMP280;71372;43.514;1.512;2023-07-13T12:33:33;100447.41;;;25.84
81909;BMP280;71372;43.514;1.512;2023-07-13T12:36:05;100455.91;;;25.86
81909;BMP280;71372;43.514;1.512;2023-07-13T12:38:32;100451.53;;;25.86
81909;BMP280;71372;43.514;1.512;2023-07-13T12:40:58;100436.75;;;25.87
81909;BMP280;71372;43.514;1.512;2023-07-13T12:43:25;100441.03;;;25.88
81909;BMP280;71372;43.514;1.512;2023-07-13T12:46:02;100435.72;;;25.89
81909;BMP280;71372;43.514;1.512;2023-07-13T12:48:28;100442.69;;;25.89
81909;BMP280;71372;43.514;1.512;2023-07-13T12:50:55;100452.13;;;25.90
81909;BMP280;71372;43.514;1.512;2023-07-13T12:53:28;100440.78;;;25.91
81909;BMP280;71372;43.514;1.512;2023-07-13T12:56:02;100438.19;;;25.91
81909;BMP280;71372;43.514;1.512;2023-07-13T12:58:36;100445.03;;;25.91
81909;BMP280;71372;43.514;1.512;2023-07-13T13:01:04;100445.03;;;25.91
81909;BMP280;71372;43.514;1.512;2023-07-13T13:03:45;100441.47;;;25.92
81909;BMP280;71372;43.514;1.512;2023-07-13T13:08:40;100440.66;;;25.92
81909;BMP280;71372;43.514;1.512;2023-07-13T13:11:08;100436.28;;;25.92
81909;BMP280;71372;43.514;1.512;2023-07-13T13:13:35;100435.38;;;25.93
81909;BMP280;71372;43.514;1.512;2023-07-13T13:16:22;100444.81;;;25.94
81909;BMP280;71372;43.514;1.512;2023-07-13T13:18:50;100438.78;;;25.94
81909;BMP280;71372;43.514;1.512;2023-07-13T13:21:17;100432.66;;;25.95
81909;BMP280;71372;43.514;1.512;2023-07-13T13:23:43;100433.47;;;25.95
81909;BMP280;71372;43.514;1.512;2023-07-13T13:26:15;100435.13;;;25.96
81909;BMP280;71372;43.514;1.512;2023-07-13T13:28:43;100430.88;;;25.95
81909;BMP280;71372;43.514;1.512;2023-07-13T13:31:11;100420.34;;;25.97
81909;BMP280;71372;43.514;1.512;2023-07-13T13:33:39;100418.59;;;25.97
81909;BMP280;71372;43.514;1.512;2023-07-13T13:36:20;100420.22;;;25.98
81909;BMP280;71372;43.514;1.512;2023-07-13T13:38:48;100419.41;;;25.98
81909;BMP280;71372;43.514;1.512;2023-07-13T13:41:14;100427.09;;;25.99
81909;BMP280;71372;43.514;1.512;2023-07-13T13:43:41;100422.59;;;26.01
81909;BMP280;71372;43.514;1.512;2023-07-13T13:46:19;100421.69;;;26.02
81909;BMP280;71372;43.514;1.512;2023-07-13T13:48:45;100426.03;;;26.02
81909;BMP280;71372;43.514;1.512;2023-07-13T13:51:17;100423.34;;;26.03
81909;BMP280;71372;43.514;1.512;2023-07-13T13:53:45;100420.75;;;26.03
81909;BMP280;71372;43.514;1.512;2023-07-13T13:56:12;100414.63;;;26.04
81909;BMP280;71372;43.514;1.512;2023-07-13T13:58:38;100412.03;;;26.04
81909;BMP280;71372;43.514;1.512;2023-07-13T14:01:09;100408.47;;;26.05
81909;BMP280;71372;43.514;1.512;2023-07-13T14:03:36;100405.88;;;26.05
81909;BMP280;71372;43.514;1.512;2023-07-13T14:06:02;100411.91;;;26.06
81909;BMP280;71372;43.514;1.512;2023-07-13T14:08:28;100412.72;;;26.06
81909;BMP280;71372;43.514;1.512;2023-07-13T14:10:56;100404.78;;;26.08
81909;BMP280;71372;43.514;1.512;2023-07-13T14:13:28;100405.63;;;26.08
81909;BMP280;71372;43.514;1.512;2023-07-13T14:15:54;100395.22;;;26.08
81909;BMP280;71372;43.514;1.512;2023-07-13T14:18:20;100399.47;;;26.09
81909;BMP280;71372;43.514;1.512;2023-07-13T14:20:47;100389.09;;;26.09
81909;BMP280;71372;43.514;1.512;2023-07-13T14:23:15;100396.88;;;26.09
81909;BMP280;71372;43.514;1.512;2023-07-13T14:25:45;100390.97;;;26.07
81909;BMP280;71372;43.514;1.512;2023-07-13T14:30:45;100392.06;;;26.05
81909;BMP280;71372;43.514;1.512;2023-07-13T14:33:11;100391.34;;;26.03
81909;BMP280;71372;43.514;1.512;2023-07-13T14:35:37;100395.34;;;26.07
81909;BMP280;71372;43.514;1.512;2023-07-13T14:38:04;100390.03;;;26.08
81909;BMP280;71372;43.514;1.512;2023-07-13T14:40:31;100381.28;;;26.09
81909;BMP280;71372;43.514;1.512;2023-07-13T14:42:58;100379.41;;;26.11
81909;BMP280;71372;43.514;1.512;2023-07-13T14:45:24;100382.97;;;26.10
81909;BMP280;71372;43.514;1.512;2023-07-13T14:47:51;100374.22;;;26.11